createdAt,value
2023-05-01T00:00:31.572Z,14.93
2023-05-01T00:06:01.003Z,14.70
2023-05-01T00:11:24.903Z,14.97
2023-05-01T00:16:48.154Z,13.67
2023-05-01T00:22:10.393Z,13.47
2023-05-01T00:27:33.067Z,12.57
2023-05-01T00:32:55.614Z,10.63
2023-05-01T00:38:18.104Z,9.93
2023-05-01T00:43:40.546Z,7.90
2023-05-01T00:49:03.048Z,7.43
2023-05-01T00:54:27.778Z,7.33
2023-05-01T00:59:50.082Z,6.47
2023-05-01T01:05:12.583Z,6.77
2023-05-01T01:10:54.636Z,5.70
2023-05-01T01:16:30.593Z,5.20
2023-05-01T01:21:58.908Z,4.57
2023-05-01T01:27:52.330Z,4.40
2023-05-01T01:33:17.754Z,5.00
2023-05-01T01:38:45.807Z,5.20
2023-05-01T01:44:17.756Z,4.93
2023-05-01T01:49:44.656Z,5.27
2023-05-01T01:55:12.346Z,5.03
2023-05-01T02:00:35.842Z,4.83
2023-05-01T02:06:00.224Z,4.77
2023-05-01T02:11:25.263Z,5.63
2023-05-01T02:16:50.518Z,5.40
2023-05-01T02:22:13.778Z,5.37
2023-05-01T02:27:40.414Z,4.97
2023-05-01T02:33:02.774Z,5.97
2023-05-01T02:38:25.591Z,5.30
2023-05-01T02:43:53.476Z,5.90
2023-05-01T02:49:18.817Z,5.33
2023-05-01T02:54:41.831Z,5.47
2023-05-01T03:00:04.980Z,6.03
2023-05-01T03:05:27.821Z,5.40
2023-05-01T03:10:50.110Z,5.40
2023-05-01T03:16:12.383Z,5.20
2023-05-01T03:21:34.673Z,5.07
2023-05-01T03:26:57.410Z,5.07
2023-05-01T03:32:19.691Z,4.90
2023-05-01T03:37:43.475Z,5.13
2023-05-01T03:43:08.961Z,5.03
2023-05-01T03:48:31.372Z,4.87
2023-05-01T03:53:56.650Z,4.93
2023-05-01T03:59:19.491Z,4.50
2023-05-01T04:04:42.016Z,5.27
2023-05-01T04:10:04.824Z,5.00
2023-05-01T04:15:27.753Z,5.17
2023-05-01T04:20:51.368Z,4.77
2023-05-01T04:26:13.902Z,4.23
2023-05-01T04:31:36.328Z,5.60
2023-05-01T04:36:59.090Z,4.67
2023-05-01T04:42:21.557Z,4.60
2023-05-01T04:47:44.318Z,5.83
2023-05-01T04:53:06.987Z,6.27
2023-05-01T04:58:30.782Z,5.53
2023-05-01T05:03:58.521Z,5.20
2023-05-01T05:09:21.172Z,5.90
2023-05-01T05:14:43.939Z,5.90
2023-05-01T05:20:08.723Z,4.90
2023-05-01T05:25:31.158Z,4.67
2023-05-01T05:30:53.267Z,5.20
2023-05-01T05:36:16.275Z,4.60
2023-05-01T05:41:39.642Z,5.27
2023-05-01T05:47:02.234Z,4.40
2023-05-01T05:52:27.906Z,5.23
2023-05-01T05:57:51.650Z,4.87
2023-05-01T06:03:15.080Z,4.63
2023-05-01T06:08:38.652Z,4.73
2023-05-01T06:14:03.759Z,4.67
2023-05-01T06:19:26.258Z,5.17
2023-05-01T06:24:55.658Z,4.63
2023-05-01T06:30:20.231Z,4.40
2023-05-01T06:35:42.602Z,4.60
2023-05-01T06:41:05.862Z,4.47
2023-05-01T06:46:28.050Z,4.27
2023-05-01T06:51:50.373Z,4.40
2023-05-01T06:57:12.587Z,4.23
2023-05-01T07:02:35.357Z,3.87
2023-05-01T07:08:01.146Z,3.90
2023-05-01T07:13:24.698Z,4.30
2023-05-01T07:18:47.050Z,3.93
2023-05-01T07:24:09.819Z,3.97
2023-05-01T07:29:32.004Z,3.27
2023-05-01T07:34:54.881Z,3.77
2023-05-01T07:40:17.904Z,3.50
2023-05-01T07:45:40.236Z,3.97
2023-05-01T07:51:03.764Z,3.80
2023-05-01T07:56:27.295Z,3.53
2023-05-01T08:01:49.493Z,3.60
2023-05-01T08:07:12.498Z,3.30
2023-05-01T08:12:35.019Z,3.57
2023-05-01T08:17:57.297Z,2.80
2023-05-01T08:23:19.911Z,3.10
2023-05-01T08:28:42.373Z,2.93
2023-05-01T08:34:05.012Z,3.17
2023-05-01T08:39:27.318Z,2.73
2023-05-01T08:44:51.310Z,2.37
2023-05-01T08:50:16.472Z,2.60
2023-05-01T08:55:39.104Z,2.33
2023-05-01T09:01:03.175Z,2.83
2023-05-01T09:06:28.732Z,2.63
2023-05-01T09:11:51.114Z,2.60
2023-05-01T09:17:13.864Z,2.33
2023-05-01T09:22:36.664Z,2.13
2023-05-01T09:27:58.976Z,2.13
2023-05-01T09:33:21.989Z,2.30
2023-05-01T09:38:44.797Z,2.70
2023-05-01T09:44:19.434Z,2.30
2023-05-01T09:49:46.821Z,2.72
2023-05-01T09:55:17.172Z,2.70
2023-05-01T10:00:49.323Z,2.42
2023-05-01T10:06:11.977Z,2.88
2023-05-01T10:11:55.746Z,2.60
2023-05-01T10:17:21.339Z,2.78
2023-05-01T10:22:44.511Z,3.00
2023-05-01T10:28:08.922Z,3.13
2023-05-01T10:33:32.594Z,3.40
2023-05-01T10:38:55.239Z,3.05
2023-05-01T10:44:22.066Z,3.10
2023-05-01T10:50:07.778Z,3.08
2023-05-01T10:55:37.393Z,3.20
2023-05-01T11:01:32.308Z,3.70
2023-05-01T11:07:11.423Z,3.08
2023-05-01T11:12:48.420Z,3.38
2023-05-01T11:18:11.412Z,3.45
2023-05-01T11:23:33.719Z,3.30
2023-05-01T11:28:59.571Z,2.90
2023-05-01T11:34:22.324Z,2.90
2023-05-01T11:39:52.666Z,2.58
2023-05-01T11:45:15.652Z,3.10
2023-05-01T11:50:39.181Z,3.65
2023-05-01T11:56:01.330Z,3.40
2023-05-01T12:01:37.178Z,3.13
2023-05-01T12:06:59.628Z,2.80
2023-05-01T12:12:22.451Z,3.13
2023-05-01T12:17:46.895Z,3.00
2023-05-01T12:23:11.526Z,3.20
2023-05-01T12:28:33.848Z,2.97
2023-05-01T12:33:58.591Z,3.20
2023-05-01T12:39:22.158Z,3.17
2023-05-01T12:44:44.454Z,3.35
2023-05-01T12:50:08.169Z,3.35
2023-05-01T12:55:30.679Z,2.88
2023-05-01T13:00:55.046Z,2.63
2023-05-01T13:06:17.468Z,2.90
2023-05-01T13:11:39.961Z,2.83
2023-05-01T13:17:02.157Z,2.38
2023-05-01T13:22:30.943Z,2.75
2023-05-01T13:27:53.668Z,2.80
2023-05-01T13:33:16.114Z,2.80
2023-05-01T13:38:45.914Z,2.65
2023-05-01T13:44:08.667Z,2.20
2023-05-01T13:49:32.029Z,3.08
2023-05-01T13:54:56.522Z,2.78
2023-05-01T14:00:20.760Z,2.53
2023-05-01T14:05:43.053Z,2.20
2023-05-01T14:11:09.491Z,2.13
2023-05-01T14:16:31.933Z,2.60
2023-05-01T14:21:54.491Z,2.45
2023-05-01T14:27:16.702Z,2.20
2023-05-01T14:32:41.004Z,2.20
2023-05-01T14:38:14.442Z,2.53
2023-05-01T14:43:39.765Z,2.35
2023-05-01T14:49:02.482Z,2.58
2023-05-01T14:54:24.947Z,2.65
2023-05-01T14:59:47.328Z,2.60
2023-05-01T15:05:10.092Z,2.30
2023-05-01T15:10:32.481Z,2.60
2023-05-01T15:15:55.422Z,2.50
2023-05-01T15:21:18.322Z,2.65
2023-05-01T15:26:40.990Z,2.60
2023-05-01T15:32:12.626Z,2.58
2023-05-01T15:37:35.731Z,2.72
2023-05-01T15:42:58.700Z,2.50
2023-05-01T15:48:21.234Z,2.83
2023-05-01T15:53:44.186Z,2.42
2023-05-01T15:59:07.800Z,2.70
2023-05-01T16:04:30.191Z,2.63
2023-05-01T16:09:52.698Z,3.00
2023-05-01T16:15:15.036Z,2.90
2023-05-01T16:20:43.146Z,3.15
2023-05-01T16:26:06.209Z,3.03
2023-05-01T16:31:41.101Z,3.20
2023-05-01T16:37:06.091Z,2.97
2023-05-01T16:42:28.748Z,3.38
2023-05-01T16:47:51.660Z,3.45
2023-05-01T16:53:14.471Z,3.97
2023-05-01T16:58:37.325Z,3.20
2023-05-01T17:03:59.557Z,3.65
2023-05-01T17:09:21.770Z,3.50
2023-05-01T17:14:53.686Z,3.60
2023-05-01T17:20:16.563Z,3.60
2023-05-01T17:25:39.147Z,3.47
2023-05-01T17:31:01.542Z,4.32
2023-05-01T17:36:24.085Z,4.15
2023-05-01T17:41:46.572Z,4.32
2023-05-01T17:47:09.817Z,5.53
2023-05-01T17:52:32.427Z,5.07
2023-05-01T17:57:55.599Z,5.00
2023-05-01T18:03:18.084Z,4.45
2023-05-01T18:08:40.622Z,4.80
2023-05-01T18:14:04.527Z,3.90
2023-05-01T18:19:27.011Z,4.53
2023-05-01T18:24:49.589Z,4.15
2023-05-01T18:30:12.470Z,5.35
2023-05-01T18:35:38.101Z,5.28
2023-05-01T18:41:00.565Z,7.00
2023-05-01T18:46:23.125Z,6.55
2023-05-01T18:51:45.525Z,4.87
2023-05-01T18:57:07.783Z,5.33
2023-05-01T19:02:30.257Z,5.10
2023-05-01T19:07:55.475Z,5.37
2023-05-01T19:13:20.165Z,5.43
2023-05-01T19:18:45.783Z,6.07
2023-05-01T19:24:10.459Z,5.33
2023-05-01T19:29:34.144Z,5.90
2023-05-01T19:34:57.831Z,5.80
2023-05-01T19:40:23.243Z,5.70
2023-05-01T19:45:47.026Z,5.23
2023-05-01T19:51:10.357Z,5.33
2023-05-01T19:56:34.910Z,5.40
2023-05-01T20:02:01.325Z,5.07
2023-05-01T20:07:30.103Z,5.67
2023-05-01T20:12:53.899Z,6.23
2023-05-01T20:18:17.587Z,7.50
2023-05-01T20:23:44.017Z,7.33
2023-05-01T20:29:10.795Z,6.43
2023-05-01T20:34:34.853Z,5.57
2023-05-01T20:40:05.789Z,5.63
2023-05-01T20:45:32.010Z,6.23
2023-05-01T20:50:57.900Z,5.90
2023-05-01T20:56:29.885Z,6.27
2023-05-01T21:01:56.733Z,6.03
2023-05-01T21:07:19.290Z,7.70
2023-05-01T21:12:42.710Z,7.17
2023-05-01T21:18:05.121Z,7.20
2023-05-01T21:23:27.654Z,7.03
2023-05-01T21:28:49.987Z,7.33
2023-05-01T21:34:17.407Z,7.20
2023-05-01T21:39:39.843Z,6.93
2023-05-01T21:45:09.742Z,7.30
2023-05-01T21:50:36.066Z,6.37
2023-05-01T21:55:58.232Z,7.00
2023-05-01T22:01:22.434Z,8.80
2023-05-01T22:06:44.745Z,9.47
2023-05-01T22:12:07.242Z,9.30
2023-05-01T22:17:29.398Z,9.30
2023-05-01T22:22:52.146Z,9.67
2023-05-01T22:28:15.897Z,9.53
2023-05-01T22:33:40.537Z,9.33
2023-05-01T22:39:03.718Z,10.20
2023-05-01T22:44:26.435Z,9.80
2023-05-01T22:49:48.764Z,9.27
2023-05-01T22:55:11.342Z,8.70
2023-05-01T23:00:33.713Z,8.93
2023-05-01T23:05:56.090Z,8.10
2023-05-01T23:11:18.976Z,8.90
2023-05-01T23:16:42.468Z,9.07
2023-05-01T23:22:09.352Z,8.30
2023-05-01T23:27:34.639Z,7.83
2023-05-01T23:32:58.995Z,7.60
2023-05-01T23:38:21.375Z,7.30
2023-05-01T23:43:46.675Z,7.23
2023-05-01T23:49:09.127Z,7.03
2023-05-01T23:54:31.640Z,7.57
2023-05-01T23:59:54.199Z,7.40
